sensor_id;sensor_type;location;lat;lon;timestamp;P1;durP1;ratioP1;P2;durP2;ratioP2
79229;SDS011;68663;49.122;17.544;2023-08-06T00:00:11;1.30;;;1.20;;
79229;SDS011;68663;49.122;17.544;2023-08-06T00:02:37;2.67;;;1.35;;
79229;SDS011;68663;49.122;17.544;2023-08-06T00:05:02;1.58;;;1.35;;
79229;SDS011;68663;49.122;17.544;2023-08-06T00:07:28;3.67;;;1.48;;
79229;SDS011;68663;49.122;17.544;2023-08-06T00:09:53;1.90;;;1.37;;
79229;SDS011;68663;49.122;17.544;2023-08-06T00:12:19;1.60;;;1.20;;
79229;SDS011;68663;49.122;17.544;2023-08-06T00:14:44;2.03;;;1.30;;
79229;SDS011;68663;49.122;17.544;2023-08-06T00:17:10;1.40;;;1.30;;
79229;SDS011;68663;49.122;17.544;2023-08-06T00:19:35;1.30;;;1.20;;
79229;SDS011;68663;49.122;17.544;2023-08-06T00:22:00;1.10;;;1.00;;
79229;SDS011;68663;49.122;17.544;2023-08-06T00:24:27;1.23;;;1.10;;
79229;SDS011;68663;49.122;17.544;2023-08-06T00:26:52;1.30;;;1.20;;
79229;SDS011;68663;49.122;17.544;2023-08-06T00:29:18;2.30;;;1.10;;
79229;SDS011;68663;49.122;17.544;2023-08-06T00:31:43;2.40;;;1.20;;
79229;SDS011;68663;49.122;17.544;2023-08-06T00:34:08;2.57;;;1.30;;
79229;SDS011;68663;49.122;17.544;2023-08-06T00:36:34;1.50;;;1.20;;
79229;SDS011;68663;49.122;17.544;2023-08-06T00:38:59;1.53;;;1.30;;
79229;SDS011;68663;49.122;17.544;2023-08-06T00:41:24;1.98;;;1.33;;
79229;SDS011;68663;49.122;17.544;2023-08-06T00:43:52;1.95;;;1.20;;
79229;SDS011;68663;49.122;17.544;2023-08-06T00:46:17;2.15;;;1.20;;
79229;SDS011;68663;49.122;17.544;2023-08-06T00:48:43;1.25;;;0.98;;
79229;SDS011;68663;49.122;17.544;2023-08-06T00:51:09;1.17;;;1.10;;
79229;SDS011;68663;49.122;17.544;2023-08-06T00:53:37;1.70;;;1.20;;
79229;SDS011;68663;49.122;17.544;2023-08-06T00:56:03;1.30;;;1.10;;
79229;SDS011;68663;49.122;17.544;2023-08-06T00:58:29;1.40;;;1.15;;
79229;SDS011;68663;49.122;17.544;2023-08-06T01:00:55;1.65;;;1.15;;
79229;SDS011;68663;49.122;17.544;2023-08-06T01:03:20;3.55;;;1.15;;
79229;SDS011;68663;49.122;17.544;2023-08-06T01:05:46;1.77;;;1.08;;
79229;SDS011;68663;49.122;17.544;2023-08-06T01:08:28;1.30;;;1.20;;
79229;SDS011;68663;49.122;17.544;2023-08-06T01:13:58;1.73;;;1.13;;
79229;SDS011;68663;49.122;17.544;2023-08-06T01:16:32;1.45;;;1.30;;
79229;SDS011;68663;49.122;17.544;2023-08-06T01:18:58;1.45;;;1.20;;
79229;SDS011;68663;49.122;17.544;2023-08-06T01:21:24;1.80;;;1.25;;
79229;SDS011;68663;49.122;17.544;2023-08-06T01:23:49;1.55;;;1.30;;
79229;SDS011;68663;49.122;17.544;2023-08-06T01:31:41;1.60;;;1.13;;
79229;SDS011;68663;49.122;17.544;2023-08-06T01:34:13;1.58;;;0.93;;
79229;SDS011;68663;49.122;17.544;2023-08-06T01:36:43;1.40;;;1.23;;
79229;SDS011;68663;49.122;17.544;2023-08-06T01:39:09;1.63;;;1.00;;
79229;SDS011;68663;49.122;17.544;2023-08-06T01:41:35;1.10;;;0.98;;
79229;SDS011;68663;49.122;17.544;2023-08-06T01:44:00;2.13;;;1.35;;
79229;SDS011;68663;49.122;17.544;2023-08-06T01:46:26;1.35;;;1.25;;
79229;SDS011;68663;49.122;17.544;2023-08-06T01:48:51;1.73;;;1.17;;
79229;SDS011;68663;49.122;17.544;2023-08-06T01:51:16;1.40;;;1.20;;
79229;SDS011;68663;49.122;17.544;2023-08-06T01:53:42;1.50;;;1.20;;
79229;SDS011;68663;49.122;17.544;2023-08-06T01:56:07;2.38;;;1.30;;
79229;SDS011;68663;49.122;17.544;2023-08-06T01:58:33;0.90;;;0.90;;
79229;SDS011;68663;49.122;17.544;2023-08-06T02:03:54;1.35;;;0.93;;
79229;SDS011;68663;49.122;17.544;2023-08-06T02:06:19;1.30;;;1.20;;
79229;SDS011;68663;49.122;17.544;2023-08-06T02:08:45;1.40;;;1.10;;
79229;SDS011;68663;49.122;17.544;2023-08-06T02:11:10;1.90;;;1.40;;
79229;SDS011;68663;49.122;17.544;2023-08-06T02:13:36;1.08;;;1.00;;
79229;SDS011;68663;49.122;17.544;2023-08-06T02:16:01;1.58;;;1.10;;
79229;SDS011;68663;49.122;17.544;2023-08-06T02:18:27;1.17;;;1.10;;
79229;SDS011;68663;49.122;17.544;2023-08-06T02:20:56;0.98;;;0.90;;
79229;SDS011;68663;49.122;17.544;2023-08-06T02:23:25;1.20;;;0.98;;
79229;SDS011;68663;49.122;17.544;2023-08-06T02:25:59;1.20;;;1.10;;
79229;SDS011;68663;49.122;17.544;2023-08-06T02:28:26;2.40;;;1.00;;
79229;SDS011;68663;49.122;17.544;2023-08-06T02:30:51;1.23;;;0.97;;
79229;SDS011;68663;49.122;17.544;2023-08-06T02:33:17;1.02;;;0.93;;
79229;SDS011;68663;49.122;17.544;2023-08-06T02:35:42;1.77;;;1.05;;
79229;SDS011;68663;49.122;17.544;2023-08-06T02:38:08;1.30;;;1.20;;
79229;SDS011;68663;49.122;17.544;2023-08-06T02:40:33;1.10;;;1.00;;
79229;SDS011;68663;49.122;17.544;2023-08-06T02:42:58;1.50;;;1.20;;
79229;SDS011;68663;49.122;17.544;2023-08-06T02:45:24;1.63;;;1.30;;
79229;SDS011;68663;49.122;17.544;2023-08-06T02:47:49;1.75;;;1.27;;
79229;SDS011;68663;49.122;17.544;2023-08-06T02:50:14;1.77;;;1.10;;
79229;SDS011;68663;49.122;17.544;2023-08-06T02:52:40;1.40;;;1.20;;
79229;SDS011;68663;49.122;17.544;2023-08-06T02:55:06;2.05;;;1.20;;
79229;SDS011;68663;49.122;17.544;2023-08-06T02:57:32;1.20;;;0.90;;
79229;SDS011;68663;49.122;17.544;2023-08-06T02:59:57;1.15;;;1.08;;
79229;SDS011;68663;49.122;17.544;2023-08-06T03:02:23;1.03;;;0.93;;
79229;SDS011;68663;49.122;17.544;2023-08-06T03:04:48;1.38;;;1.08;;
79229;SDS011;68663;49.122;17.544;2023-08-06T03:07:14;1.48;;;1.13;;
79229;SDS011;68663;49.122;17.544;2023-08-06T03:09:39;2.00;;;1.30;;
79229;SDS011;68663;49.122;17.544;2023-08-06T03:12:05;1.00;;;1.00;;
79229;SDS011;68663;49.122;17.544;2023-08-06T03:14:30;1.13;;;1.00;;
79229;SDS011;68663;49.122;17.544;2023-08-06T03:16:56;2.20;;;1.03;;
79229;SDS011;68663;49.122;17.544;2023-08-06T03:19:21;1.10;;;1.00;;
79229;SDS011;68663;49.122;17.544;2023-08-06T03:21:46;1.30;;;1.20;;
79229;SDS011;68663;49.122;17.544;2023-08-06T03:24:13;1.10;;;0.90;;
79229;SDS011;68663;49.122;17.544;2023-08-06T03:26:39;2.45;;;1.10;;
79229;SDS011;68663;49.122;17.544;2023-08-06T03:29:04;1.40;;;1.30;;
79229;SDS011;68663;49.122;17.544;2023-08-06T03:31:29;1.38;;;1.20;;
79229;SDS011;68663;49.122;17.544;2023-08-06T03:33:55;2.28;;;1.13;;
79229;SDS011;68663;49.122;17.544;2023-08-06T03:36:20;1.15;;;0.95;;
79229;SDS011;68663;49.122;17.544;2023-08-06T03:38:46;1.30;;;1.20;;
79229;SDS011;68663;49.122;17.544;2023-08-06T03:41:12;1.98;;;0.93;;
79229;SDS011;68663;49.122;17.544;2023-08-06T03:43:38;1.13;;;0.98;;
79229;SDS011;68663;49.122;17.544;2023-08-06T03:46:03;1.33;;;1.23;;
79229;SDS011;68663;49.122;17.544;2023-08-06T03:48:29;1.67;;;1.30;;
79229;SDS011;68663;49.122;17.544;2023-08-06T03:50:54;1.60;;;1.03;;
79229;SDS011;68663;49.122;17.544;2023-08-06T03:53:19;1.43;;;1.00;;
79229;SDS011;68663;49.122;17.544;2023-08-06T03:55:45;1.40;;;1.13;;
79229;SDS011;68663;49.122;17.544;2023-08-06T03:58:10;1.92;;;1.08;;
79229;SDS011;68663;49.122;17.544;2023-08-06T04:00:36;0.88;;;0.88;;
79229;SDS011;68663;49.122;17.544;2023-08-06T04:03:01;1.10;;;1.00;;
79229;SDS011;68663;49.122;17.544;2023-08-06T04:05:26;1.00;;;1.00;;
79229;SDS011;68663;49.122;17.544;2023-08-06T04:07:52;1.53;;;0.93;;
79229;SDS011;68663;49.122;17.544;2023-08-06T04:10:17;1.55;;;1.20;;
79229;SDS011;68663;49.122;17.544;2023-08-06T04:12:43;1.45;;;1.13;;
79229;SDS011;68663;49.122;17.544;2023-08-06T04:15:08;2.00;;;1.10;;
79229;SDS011;68663;49.122;17.544;2023-08-06T04:17:33;1.63;;;1.20;;
79229;SDS011;68663;49.122;17.544;2023-08-06T04:19:59;0.93;;;0.80;;
79229;SDS011;68663;49.122;17.544;2023-08-06T04:22:25;1.33;;;0.90;;
79229;SDS011;68663;49.122;17.544;2023-08-06T04:24:50;1.23;;;1.10;;
79229;SDS011;68663;49.122;17.544;2023-08-06T04:27:16;2.13;;;1.20;;
79229;SDS011;68663;49.122;17.544;2023-08-06T04:29:42;2.25;;;1.10;;
79229;SDS011;68663;49.122;17.544;2023-08-06T04:32:08;1.08;;;0.98;;
79229;SDS011;68663;49.122;17.544;2023-08-06T04:34:35;1.65;;;1.30;;
79229;SDS011;68663;49.122;17.544;2023-08-06T04:37:02;1.40;;;1.05;;
79229;SDS011;68663;49.122;17.544;2023-08-06T04:39:28;1.20;;;1.10;;
79229;SDS011;68663;49.122;17.544;2023-08-06T04:41:57;1.88;;;0.98;;
79229;SDS011;68663;49.122;17.544;2023-08-06T04:44:23;1.38;;;0.93;;
79229;SDS011;68663;49.122;17.544;2023-08-06T04:46:48;1.35;;;1.13;;
79229;SDS011;68663;49.122;17.544;2023-08-06T04:49:14;1.40;;;1.10;;
79229;SDS011;68663;49.122;17.544;2023-08-06T04:51:39;1.10;;;1.00;;
79229;SDS011;68663;49.122;17.544;2023-08-06T04:54:05;1.33;;;1.20;;
79229;SDS011;68663;49.122;17.544;2023-08-06T04:56:30;1.30;;;0.90;;
79229;SDS011;68663;49.122;17.544;2023-08-06T04:58:57;1.10;;;1.00;;
79229;SDS011;68663;49.122;17.544;2023-08-06T05:01:22;1.17;;;1.08;;
79229;SDS011;68663;49.122;17.544;2023-08-06T05:03:48;1.10;;;1.00;;
79229;SDS011;68663;49.122;17.544;2023-08-06T05:06:13;1.20;;;1.10;;
79229;SDS011;68663;49.122;17.544;2023-08-06T05:08:38;1.60;;;1.20;;
79229;SDS011;68663;49.122;17.544;2023-08-06T05:11:04;1.35;;;1.20;;
79229;SDS011;68663;49.122;17.544;2023-08-06T05:13:29;1.00;;;0.90;;
79229;SDS011;68663;49.122;17.544;2023-08-06T05:15:55;1.20;;;1.10;;
79229;SDS011;68663;49.122;17.544;2023-08-06T05:18:20;1.10;;;1.00;;
79229;SDS011;68663;49.122;17.544;2023-08-06T05:20:46;1.88;;;0.80;;
79229;SDS011;68663;49.122;17.544;2023-08-06T05:23:11;1.17;;;0.90;;
79229;SDS011;68663;49.122;17.544;2023-08-06T05:25:40;1.65;;;1.10;;
79229;SDS011;68663;49.122;17.544;2023-08-06T05:28:05;1.20;;;1.10;;
79229;SDS011;68663;49.122;17.544;2023-08-06T05:30:31;0.70;;;0.70;;
79229;SDS011;68663;49.122;17.544;2023-08-06T05:32:57;1.05;;;0.85;;
79229;SDS011;68663;49.122;17.544;2023-08-06T05:35:22;1.02;;;1.00;;
79229;SDS011;68663;49.122;17.544;2023-08-06T05:37:48;0.85;;;0.85;;
79229;SDS011;68663;49.122;17.544;2023-08-06T05:40:14;1.27;;;0.82;;
79229;SDS011;68663;49.122;17.544;2023-08-06T05:42:40;1.20;;;1.00;;
79229;SDS011;68663;49.122;17.544;2023-08-06T05:45:06;1.20;;;1.02;;
79229;SDS011;68663;49.122;17.544;2023-08-06T05:47:32;1.55;;;1.20;;
79229;SDS011;68663;49.122;17.544;2023-08-06T05:49:58;1.27;;;1.10;;
79229;SDS011;68663;49.122;17.544;2023-08-06T05:52:23;1.25;;;1.00;;
79229;SDS011;68663;49.122;17.544;2023-08-06T05:54:49;2.00;;;0.90;;
79229;SDS011;68663;49.122;17.544;2023-08-06T05:57:15;1.33;;;1.20;;
79229;SDS011;68663;49.122;17.544;2023-08-06T05:59:40;1.02;;;1.00;;
79229;SDS011;68663;49.122;17.544;2023-08-06T06:02:06;1.27;;;0.88;;
79229;SDS011;68663;49.122;17.544;2023-08-06T06:04:31;1.27;;;0.93;;
79229;SDS011;68663;49.122;17.544;2023-08-06T06:06:57;1.20;;;0.98;;
79229;SDS011;68663;49.122;17.544;2023-08-06T06:09:22;1.00;;;0.90;;
79229;SDS011;68663;49.122;17.544;2023-08-06T06:11:48;1.02;;;0.93;;
79229;SDS011;68663;49.122;17.544;2023-08-06T06:14:15;1.88;;;0.93;;
79229;SDS011;68663;49.122;17.544;2023-08-06T06:16:44;1.67;;;1.05;;
79229;SDS011;68663;49.122;17.544;2023-08-06T06:19:10;1.45;;;0.82;;
79229;SDS011;68663;49.122;17.544;2023-08-06T06:21:35;1.10;;;1.00;;
79229;SDS011;68663;49.122;17.544;2023-08-06T06:24:02;1.35;;;1.10;;
79229;SDS011;68663;49.122;17.544;2023-08-06T06:26:28;1.55;;;1.20;;
79229;SDS011;68663;49.122;17.544;2023-08-06T06:28:54;1.65;;;0.95;;
79229;SDS011;68663;49.122;17.544;2023-08-06T06:31:20;1.55;;;1.05;;
79229;SDS011;68663;49.122;17.544;2023-08-06T06:33:45;1.15;;;0.88;;
79229;SDS011;68663;49.122;17.544;2023-08-06T06:36:10;3.47;;;1.20;;
79229;SDS011;68663;49.122;17.544;2023-08-06T06:38:36;4.32;;;1.63;;
79229;SDS011;68663;49.122;17.544;2023-08-06T06:41:02;4.13;;;1.85;;
79229;SDS011;68663;49.122;17.544;2023-08-06T06:43:28;16.63;;;4.18;;
79229;SDS011;68663;49.122;17.544;2023-08-06T06:45:57;35.47;;;8.98;;
79229;SDS011;68663;49.122;17.544;2023-08-06T06:48:25;42.08;;;12.25;;
79229;SDS011;68663;49.122;17.544;2023-08-06T06:50:52;54.50;;;13.32;;
79229;SDS011;68663;49.122;17.544;2023-08-06T06:53:17;49.45;;;14.05;;
79229;SDS011;68663;49.122;17.544;2023-08-06T06:55:42;58.15;;;14.55;;
79229;SDS011;68663;49.122;17.544;2023-08-06T06:58:08;44.90;;;11.57;;
79229;SDS011;68663;49.122;17.544;2023-08-06T07:00:35;38.67;;;9.57;;
79229;SDS011;68663;49.122;17.544;2023-08-06T07:03:02;29.90;;;8.75;;
79229;SDS011;68663;49.122;17.544;2023-08-06T07:05:27;27.90;;;7.53;;
79229;SDS011;68663;49.122;17.544;2023-08-06T07:07:53;25.73;;;7.75;;
79229;SDS011;68663;49.122;17.544;2023-08-06T07:10:18;25.83;;;6.80;;
79229;SDS011;68663;49.122;17.544;2023-08-06T07:12:44;16.33;;;4.80;;
79229;SDS011;68663;49.122;17.544;2023-08-06T07:15:09;16.10;;;5.55;;
79229;SDS011;68663;49.122;17.544;2023-08-06T07:17:35;11.88;;;4.03;;
79229;SDS011;68663;49.122;17.544;2023-08-06T07:20:00;14.43;;;4.17;;
79229;SDS011;68663;49.122;17.544;2023-08-06T07:22:26;13.30;;;3.60;;
79229;SDS011;68663;49.122;17.544;2023-08-06T07:24:51;8.38;;;3.58;;
79229;SDS011;68663;49.122;17.544;2023-08-06T07:27:17;7.68;;;3.30;;
79229;SDS011;68663;49.122;17.544;2023-08-06T07:29:42;8.77;;;2.67;;
79229;SDS011;68663;49.122;17.544;2023-08-06T07:32:08;8.63;;;3.17;;
79229;SDS011;68663;49.122;17.544;2023-08-06T07:34:33;7.53;;;2.47;;
79229;SDS011;68663;49.122;17.544;2023-08-06T07:36:58;7.43;;;2.40;;
79229;SDS011;68663;49.122;17.544;2023-08-06T07:39:24;6.47;;;1.92;;
79229;SDS011;68663;49.122;17.544;2023-08-06T07:41:50;4.32;;;1.75;;
79229;SDS011;68663;49.122;17.544;2023-08-06T07:44:15;5.47;;;2.00;;
79229;SDS011;68663;49.122;17.544;2023-08-06T07:46:41;6.55;;;2.35;;
79229;SDS011;68663;49.122;17.544;2023-08-06T07:49:06;3.42;;;1.80;;
79229;SDS011;68663;49.122;17.544;2023-08-06T07:51:32;4.75;;;1.85;;
79229;SDS011;68663;49.122;17.544;2023-08-06T07:53:58;3.28;;;1.70;;
79229;SDS011;68663;49.122;17.544;2023-08-06T07:56:23;2.83;;;1.60;;
79229;SDS011;68663;49.122;17.544;2023-08-06T07:58:49;2.50;;;1.08;;
79229;SDS011;68663;49.122;17.544;2023-08-06T08:01:14;6.38;;;1.77;;
79229;SDS011;68663;49.122;17.544;2023-08-06T08:03:40;4.78;;;2.20;;
79229;SDS011;68663;49.122;17.544;2023-08-06T08:06:05;2.95;;;1.38;;
79229;SDS011;68663;49.122;17.544;2023-08-06T08:08:30;3.43;;;1.23;;
79229;SDS011;68663;49.122;17.544;2023-08-06T08:10:56;3.38;;;1.58;;
79229;SDS011;68663;49.122;17.544;2023-08-06T08:13:23;3.53;;;1.30;;
79229;SDS011;68663;49.122;17.544;2023-08-06T08:15:49;2.85;;;1.20;;
79229;SDS011;68663;49.122;17.544;2023-08-06T08:18:15;4.95;;;1.27;;
79229;SDS011;68663;49.122;17.544;2023-08-06T08:20:40;2.65;;;1.20;;
79229;SDS011;68663;49.122;17.544;2023-08-06T08:23:06;3.10;;;1.10;;
79229;SDS011;68663;49.122;17.544;2023-08-06T08:25:31;2.38;;;1.10;;
79229;SDS011;68663;49.122;17.544;2023-08-06T08:27:56;3.40;;;1.73;;
79229;SDS011;68663;49.122;17.544;2023-08-06T08:30:22;1.23;;;0.85;;
79229;SDS011;68663;49.122;17.544;2023-08-06T08:32:50;1.75;;;0.90;;
79229;SDS011;68663;49.122;17.544;2023-08-06T08:35:15;1.70;;;1.00;;
79229;SDS011;68663;49.122;17.544;2023-08-06T08:37:41;2.58;;;1.00;;
79229;SDS011;68663;49.122;17.544;2023-08-06T08:40:08;2.20;;;0.95;;
79229;SDS011;68663;49.122;17.544;2023-08-06T08:42:34;1.80;;;0.93;;
79229;SDS011;68663;49.122;17.544;2023-08-06T08:45:01;1.40;;;0.90;;
79229;SDS011;68663;49.122;17.544;2023-08-06T08:47:27;3.38;;;0.95;;
79229;SDS011;68663;49.122;17.544;2023-08-06T08:49:54;1.30;;;0.88;;
79229;SDS011;68663;49.122;17.544;2023-08-06T08:52:22;2.28;;;0.75;;
79229;SDS011;68663;49.122;17.544;2023-08-06T08:54:50;8.02;;;1.20;;
79229;SDS011;68663;49.122;17.544;2023-08-06T08:57:18;2.45;;;1.00;;
79229;SDS011;68663;49.122;17.544;2023-08-06T08:59:44;1.70;;;0.90;;
79229;SDS011;68663;49.122;17.544;2023-08-06T09:02:11;1.30;;;0.80;;
79229;SDS011;68663;49.122;17.544;2023-08-06T09:04:38;1.42;;;1.02;;
79229;SDS011;68663;49.122;17.544;2023-08-06T09:07:05;2.00;;;1.02;;
79229;SDS011;68663;49.122;17.544;2023-08-06T09:09:33;1.13;;;0.80;;
79229;SDS011;68663;49.122;17.544;2023-08-06T09:12:06;2.83;;;0.90;;
79229;SDS011;68663;49.122;17.544;2023-08-06T09:14:40;0.90;;;0.80;;
79229;SDS011;68663;49.122;17.544;2023-08-06T09:17:05;1.20;;;0.90;;
79229;SDS011;68663;49.122;17.544;2023-08-06T09:19:31;1.17;;;0.68;;
79229;SDS011;68663;49.122;17.544;2023-08-06T09:21:59;4.05;;;1.73;;
79229;SDS011;68663;49.122;17.544;2023-08-06T09:24:24;6.22;;;4.30;;
79229;SDS011;68663;49.122;17.544;2023-08-06T09:26:51;19.90;;;11.52;;
79229;SDS011;68663;49.122;17.544;2023-08-06T09:29:17;17.98;;;10.57;;
79229;SDS011;68663;49.122;17.544;2023-08-06T09:31:52;21.77;;;10.68;;
79229;SDS011;68663;49.122;17.544;2023-08-06T09:34:19;22.58;;;12.02;;
79229;SDS011;68663;49.122;17.544;2023-08-06T09:36:53;22.27;;;11.75;;
79229;SDS011;68663;49.122;17.544;2023-08-06T09:39:20;14.80;;;9.88;;
79229;SDS011;68663;49.122;17.544;2023-08-06T09:42:08;14.65;;;9.07;;
79229;SDS011;68663;49.122;17.544;2023-08-06T09:44:34;14.38;;;6.95;;
79229;SDS011;68663;49.122;17.544;2023-08-06T09:47:01;12.75;;;7.35;;
79229;SDS011;68663;49.122;17.544;2023-08-06T09:49:28;12.32;;;6.50;;
79229;SDS011;68663;49.122;17.544;2023-08-06T09:52:10;11.15;;;6.47;;
79229;SDS011;68663;49.122;17.544;2023-08-06T09:54:41;10.55;;;5.55;;
79229;SDS011;68663;49.122;17.544;2023-08-06T09:57:08;10.15;;;5.28;;
79229;SDS011;68663;49.122;17.544;2023-08-06T09:59:34;8.32;;;4.75;;
79229;SDS011;68663;49.122;17.544;2023-08-06T10:02:01;7.90;;;4.47;;
79229;SDS011;68663;49.122;17.544;2023-08-06T10:04:28;8.75;;;4.63;;
79229;SDS011;68663;49.122;17.544;2023-08-06T10:06:54;6.72;;;4.05;;
79229;SDS011;68663;49.122;17.544;2023-08-06T10:09:19;9.32;;;3.58;;
79229;SDS011;68663;49.122;17.544;2023-08-06T10:11:48;5.80;;;3.60;;
79229;SDS011;68663;49.122;17.544;2023-08-06T10:14:25;8.15;;;4.25;;
79229;SDS011;68663;49.122;17.544;2023-08-06T10:16:56;7.53;;;3.33;;
79229;SDS011;68663;49.122;17.544;2023-08-06T10:19:22;6.38;;;3.40;;
79229;SDS011;68663;49.122;17.544;2023-08-06T10:25:13;6.53;;;3.55;;
79229;SDS011;68663;49.122;17.544;2023-08-06T10:30:25;5.30;;;3.30;;
79229;SDS011;68663;49.122;17.544;2023-08-06T10:32:53;6.85;;;3.78;;
79229;SDS011;68663;49.122;17.544;2023-08-06T10:37:58;8.50;;;3.17;;
79229;SDS011;68663;49.122;17.544;2023-08-06T10:40:29;5.68;;;3.08;;
79229;SDS011;68663;49.122;17.544;2023-08-06T10:42:58;5.18;;;2.88;;
79229;SDS011;68663;49.122;17.544;2023-08-06T10:45:24;6.18;;;2.70;;
79229;SDS011;68663;49.122;17.544;2023-08-06T10:47:53;5.20;;;2.60;;
79229;SDS011;68663;49.122;17.544;2023-08-06T10:50:21;5.55;;;3.05;;
79229;SDS011;68663;49.122;17.544;2023-08-06T10:52:47;4.47;;;2.67;;
79229;SDS011;68663;49.122;17.544;2023-08-06T10:55:14;5.53;;;2.70;;
79229;SDS011;68663;49.122;17.544;2023-08-06T10:57:50;4.57;;;2.40;;
79229;SDS011;68663;49.122;17.544;2023-08-06T11:00:15;5.85;;;2.13;;
79229;SDS011;68663;49.122;17.544;2023-08-06T11:02:41;4.50;;;2.47;;
79229;SDS011;68663;49.122;17.544;2023-08-06T11:05:10;6.15;;;2.67;;
79229;SDS011;68663;49.122;17.544;2023-08-06T11:07:36;4.15;;;2.33;;
79229;SDS011;68663;49.122;17.544;2023-08-06T11:10:03;3.90;;;2.20;;
79229;SDS011;68663;49.122;17.544;2023-08-06T11:12:29;5.38;;;2.35;;
79229;SDS011;68663;49.122;17.544;2023-08-06T11:14:56;8.80;;;2.88;;
79229;SDS011;68663;49.122;17.544;2023-08-06T11:17:21;2.85;;;2.05;;
79229;SDS011;68663;49.122;17.544;2023-08-06T11:19:47;4.47;;;2.55;;
79229;SDS011;68663;49.122;17.544;2023-08-06T11:22:14;5.22;;;2.50;;
79229;SDS011;68663;49.122;17.544;2023-08-06T11:24:39;6.07;;;2.63;;
79229;SDS011;68663;49.122;17.544;2023-08-06T11:27:14;4.50;;;2.75;;
79229;SDS011;68663;49.122;17.544;2023-08-06T11:29:41;6.70;;;2.50;;
79229;SDS011;68663;49.122;17.544;2023-08-06T11:32:07;177.60;;;116.50;;
79229;SDS011;68663;49.122;17.544;2023-08-06T11:34:34;43.05;;;24.15;;
79229;SDS011;68663;49.122;17.544;2023-08-06T11:37:00;32.58;;;20.65;;
79229;SDS011;68663;49.122;17.544;2023-08-06T11:39:27;19.85;;;14.10;;
79229;SDS011;68663;49.122;17.544;2023-08-06T11:41:52;12.75;;;10.18;;
79229;SDS011;68663;49.122;17.544;2023-08-06T11:44:19;15.70;;;11.73;;
79229;SDS011;68663;49.122;17.544;2023-08-06T11:46:54;23.05;;;14.10;;
79229;SDS011;68663;49.122;17.544;2023-08-06T11:49:36;20.38;;;14.57;;
79229;SDS011;68663;49.122;17.544;2023-08-06T11:52:10;20.20;;;12.25;;
79229;SDS011;68663;49.122;17.544;2023-08-06T11:54:38;17.98;;;11.50;;
79229;SDS011;68663;49.122;17.544;2023-08-06T11:57:07;17.17;;;11.05;;
79229;SDS011;68663;49.122;17.544;2023-08-06T11:59:33;16.20;;;10.45;;
79229;SDS011;68663;49.122;17.544;2023-08-06T12:02:05;17.25;;;8.73;;
79229;SDS011;68663;49.122;17.544;2023-08-06T12:07:36;103.18;;;33.22;;
79229;SDS011;68663;49.122;17.544;2023-08-06T12:10:03;78.68;;;26.23;;
79229;SDS011;68663;49.122;17.544;2023-08-06T12:12:29;68.88;;;24.38;;
79229;SDS011;68663;49.122;17.544;2023-08-06T12:14:55;57.67;;;21.95;;
79229;SDS011;68663;49.122;17.544;2023-08-06T12:17:21;40.58;;;16.95;;
79229;SDS011;68663;49.122;17.544;2023-08-06T12:19:47;30.27;;;13.55;;
79229;SDS011;68663;49.122;17.544;2023-08-06T12:22:13;30.58;;;12.77;;
79229;SDS011;68663;49.122;17.544;2023-08-06T12:24:39;27.30;;;10.82;;
79229;SDS011;68663;49.122;17.544;2023-08-06T12:27:08;32.83;;;11.50;;
79229;SDS011;68663;49.122;17.544;2023-08-06T12:29:34;22.63;;;11.05;;
79229;SDS011;68663;49.122;17.544;2023-08-06T12:32:00;29.58;;;12.82;;
79229;SDS011;68663;49.122;17.544;2023-08-06T12:34:26;25.80;;;10.88;;
79229;SDS011;68663;49.122;17.544;2023-08-06T12:36:52;26.33;;;10.80;;
79229;SDS011;68663;49.122;17.544;2023-08-06T12:39:18;26.88;;;11.75;;
79229;SDS011;68663;49.122;17.544;2023-08-06T12:41:43;23.15;;;10.80;;
79229;SDS011;68663;49.122;17.544;2023-08-06T12:44:11;23.13;;;11.18;;
79229;SDS011;68663;49.122;17.544;2023-08-06T12:46:37;23.90;;;9.35;;
79229;SDS011;68663;49.122;17.544;2023-08-06T12:49:02;16.58;;;9.48;;
79229;SDS011;68663;49.122;17.544;2023-08-06T12:51:28;19.80;;;10.50;;
79229;SDS011;68663;49.122;17.544;2023-08-06T12:53:54;22.63;;;9.13;;
79229;SDS011;68663;49.122;17.544;2023-08-06T12:56:19;15.60;;;8.65;;
79229;SDS011;68663;49.122;17.544;2023-08-06T12:58:44;19.67;;;8.73;;
79229;SDS011;68663;49.122;17.544;2023-08-06T13:01:10;18.23;;;9.95;;
79229;SDS011;68663;49.122;17.544;2023-08-06T13:03:35;18.60;;;8.63;;
79229;SDS011;68663;49.122;17.544;2023-08-06T13:06:01;17.92;;;8.98;;
79229;SDS011;68663;49.122;17.544;2023-08-06T13:08:26;13.45;;;7.85;;
79229;SDS011;68663;49.122;17.544;2023-08-06T13:10:52;13.75;;;7.88;;
79229;SDS011;68663;49.122;17.544;2023-08-06T13:13:17;15.63;;;7.88;;
79229;SDS011;68663;49.122;17.544;2023-08-06T13:15:43;16.40;;;7.90;;
79229;SDS011;68663;49.122;17.544;2023-08-06T13:18:08;16.40;;;7.70;;
79229;SDS011;68663;49.122;17.544;2023-08-06T13:20:34;18.55;;;8.27;;
79229;SDS011;68663;49.122;17.544;2023-08-06T13:22:59;21.70;;;8.50;;
79229;SDS011;68663;49.122;17.544;2023-08-06T13:25:26;17.80;;;8.07;;
79229;SDS011;68663;49.122;17.544;2023-08-06T13:27:53;14.90;;;7.68;;
79229;SDS011;68663;49.122;17.544;2023-08-06T13:30:19;14.60;;;7.68;;
79229;SDS011;68663;49.122;17.544;2023-08-06T13:32:45;16.15;;;7.00;;
79229;SDS011;68663;49.122;17.544;2023-08-06T13:35:11;16.67;;;7.88;;
79229;SDS011;68663;49.122;17.544;2023-08-06T13:37:36;13.57;;;7.25;;
79229;SDS011;68663;49.122;17.544;2023-08-06T13:40:02;15.50;;;7.15;;
79229;SDS011;68663;49.122;17.544;2023-08-06T13:42:27;11.15;;;7.03;;
79229;SDS011;68663;49.122;17.544;2023-08-06T13:44:54;17.83;;;8.10;;
79229;SDS011;68663;49.122;17.544;2023-08-06T13:47:24;12.13;;;6.68;;
79229;SDS011;68663;49.122;17.544;2023-08-06T13:49:50;13.93;;;7.25;;
79229;SDS011;68663;49.122;17.544;2023-08-06T13:52:15;13.60;;;6.68;;
79229;SDS011;68663;49.122;17.544;2023-08-06T13:54:41;16.77;;;6.70;;
79229;SDS011;68663;49.122;17.544;2023-08-06T13:57:06;16.48;;;7.15;;
79229;SDS011;68663;49.122;17.544;2023-08-06T13:59:31;11.82;;;6.90;;
79229;SDS011;68663;49.122;17.544;2023-08-06T14:01:57;14.18;;;7.15;;
79229;SDS011;68663;49.122;17.544;2023-08-06T14:04:24;14.57;;;7.57;;
79229;SDS011;68663;49.122;17.544;2023-08-06T14:06:50;12.25;;;6.07;;
79229;SDS011;68663;49.122;17.544;2023-08-06T14:09:15;10.50;;;5.68;;
79229;SDS011;68663;49.122;17.544;2023-08-06T14:11:43;11.23;;;6.43;;
79229;SDS011;68663;49.122;17.544;2023-08-06T14:14:10;10.55;;;6.00;;
79229;SDS011;68663;49.122;17.544;2023-08-06T14:16:36;10.20;;;6.18;;
79229;SDS011;68663;49.122;17.544;2023-08-06T14:19:01;13.02;;;6.25;;
79229;SDS011;68663;49.122;17.544;2023-08-06T14:21:27;12.80;;;6.45;;
79229;SDS011;68663;49.122;17.544;2023-08-06T14:23:52;11.52;;;6.32;;
79229;SDS011;68663;49.122;17.544;2023-08-06T14:26:19;9.85;;;6.10;;
79229;SDS011;68663;49.122;17.544;2023-08-06T14:28:44;11.10;;;5.38;;
79229;SDS011;68663;49.122;17.544;2023-08-06T14:31:10;9.90;;;5.90;;
79229;SDS011;68663;49.122;17.544;2023-08-06T14:33:36;8.88;;;6.03;;
79229;SDS011;68663;49.122;17.544;2023-08-06T14:36:02;9.65;;;5.53;;
79229;SDS011;68663;49.122;17.544;2023-08-06T14:38:27;10.55;;;5.57;;
79229;SDS011;68663;49.122;17.544;2023-08-06T14:40:54;9.00;;;5.90;;
79229;SDS011;68663;49.122;17.544;2023-08-06T14:43:19;10.13;;;5.53;;
79229;SDS011;68663;49.122;17.544;2023-08-06T14:45:45;12.10;;;5.88;;